createdAt,value
2023-04-16T00:00:22.690Z,13.26
2023-04-16T00:05:25.246Z,13.23
2023-04-16T00:15:44.404Z,13.01
2023-04-16T00:20:47.645Z,12.97
2023-04-16T00:25:50.284Z,12.74
2023-04-16T00:30:53.140Z,12.93
2023-04-16T00:35:59.140Z,12.75
2023-04-16T00:41:01.739Z,12.37
2023-04-16T00:46:07.298Z,12.68
2023-04-16T00:51:11.077Z,12.74
2023-04-16T00:56:14.055Z,12.55
2023-04-16T01:01:16.815Z,12.38
2023-04-16T01:06:19.900Z,12.46
2023-04-16T01:11:22.720Z,12.72
2023-04-16T01:16:26.982Z,12.46
2023-04-16T01:21:30.110Z,12.27
2023-04-16T01:26:32.891Z,12.72
2023-04-16T01:31:35.842Z,12.65
2023-04-16T01:36:58.978Z,12.65
2023-04-16T01:42:02.549Z,12.63
2023-04-16T01:47:05.183Z,12.23
2023-04-16T01:52:08.736Z,12.11
2023-04-16T01:57:11.408Z,12.07
2023-04-16T02:02:16.551Z,12.29
2023-04-16T02:07:19.291Z,12.17
2023-04-16T02:12:21.840Z,12.22
2023-04-16T02:17:24.717Z,12.56
2023-04-16T02:22:38.124Z,12.18
2023-04-16T02:27:40.948Z,11.73
2023-04-16T02:32:59.644Z,12.06
2023-04-16T02:38:03.542Z,11.80
2023-04-16T02:43:06.103Z,11.99
2023-04-16T02:48:09.810Z,11.46
2023-04-16T02:53:12.324Z,12.07
2023-04-16T02:58:14.854Z,11.85
2023-04-16T03:03:17.731Z,12.11
2023-04-16T03:08:20.533Z,12.38
2023-04-16T03:13:23.137Z,12.25
2023-04-16T03:18:25.903Z,12.14
2023-04-16T03:23:28.766Z,12.49
2023-04-16T03:28:31.656Z,12.33
2023-04-16T03:33:34.289Z,12.13
2023-04-16T03:38:37.036Z,11.79
2023-04-16T03:43:39.769Z,12.18
2023-04-16T03:48:42.433Z,12.13
2023-04-16T03:53:45.434Z,12.31
2023-04-16T03:58:49.837Z,12.25
2023-04-16T04:03:52.583Z,12.16
2023-04-16T04:08:55.611Z,12.58
2023-04-16T04:13:58.693Z,12.32
2023-04-16T04:19:01.962Z,12.31
2023-04-16T04:24:04.575Z,12.77
2023-04-16T04:29:09.291Z,12.83
2023-04-16T04:34:12.279Z,12.61
2023-04-16T04:39:15.066Z,12.67
2023-04-16T04:44:19.532Z,12.32
2023-04-16T04:49:22.337Z,11.93
2023-04-16T04:54:25.145Z,12.29
2023-04-16T04:59:29.737Z,12.52
2023-04-16T05:04:32.781Z,12.91
2023-04-16T05:09:35.587Z,12.34
2023-04-16T05:14:38.095Z,12.64
2023-04-16T05:19:40.693Z,12.74
2023-04-16T05:24:43.227Z,12.93
2023-04-16T05:29:46.078Z,12.59
2023-04-16T05:34:48.617Z,12.16
2023-04-16T05:39:51.370Z,12.52
2023-04-16T05:44:53.960Z,12.57
2023-04-16T05:49:56.642Z,12.33
2023-04-16T05:55:01.957Z,12.80
2023-04-16T06:00:05.059Z,12.71
2023-04-16T06:05:14.678Z,12.45
2023-04-16T06:10:17.295Z,12.53
2023-04-16T06:15:19.968Z,12.48
2023-04-16T06:20:22.639Z,12.41
2023-04-16T06:25:25.382Z,13.11
2023-04-16T06:30:28.273Z,12.91
2023-04-16T06:35:31.185Z,12.37
2023-04-16T06:40:33.941Z,11.97
2023-04-16T06:45:36.617Z,12.08
2023-04-16T06:50:40.674Z,12.20
2023-04-16T06:55:43.260Z,12.10
2023-04-16T07:00:46.392Z,12.14
2023-04-16T07:05:48.980Z,12.23
2023-04-16T07:10:52.935Z,12.21
2023-04-16T07:15:55.861Z,11.58
2023-04-16T07:20:58.661Z,11.97
2023-04-16T07:26:01.474Z,12.33
2023-04-16T07:31:04.500Z,12.72
2023-04-16T07:36:07.486Z,13.12
2023-04-16T07:41:10.177Z,12.74
2023-04-16T07:46:12.777Z,12.75
2023-04-16T07:51:15.566Z,12.90
2023-04-16T07:56:18.098Z,13.06
2023-04-16T08:01:20.730Z,12.98
2023-04-16T08:06:23.370Z,13.26
2023-04-16T08:11:26.397Z,13.34
2023-04-16T08:16:29.432Z,13.04
2023-04-16T08:21:32.287Z,12.87
2023-04-16T08:26:35.107Z,12.55
2023-04-16T08:31:37.936Z,12.76
2023-04-16T08:36:41.721Z,13.18
2023-04-16T08:41:46.778Z,13.11
2023-04-16T08:46:50.868Z,13.22
2023-04-16T08:51:57.523Z,12.89
2023-04-16T08:57:04.070Z,12.71
2023-04-16T09:02:07.383Z,12.80
2023-04-16T09:07:10.990Z,12.78
2023-04-16T09:12:13.653Z,12.93
2023-04-16T09:17:17.172Z,13.22
2023-04-16T09:22:19.796Z,13.23
2023-04-16T09:27:25.384Z,12.77
2023-04-16T09:32:29.695Z,12.55
2023-04-16T09:37:32.721Z,12.59
2023-04-16T09:42:37.428Z,12.82
2023-04-16T09:47:45.670Z,13.12
2023-04-16T09:52:51.867Z,12.79
2023-04-16T09:58:01.861Z,13.05
2023-04-16T10:03:06.303Z,12.81
2023-04-16T10:08:13.439Z,12.80
2023-04-16T10:13:17.842Z,12.64
2023-04-16T10:18:20.933Z,12.58
2023-04-16T10:23:23.764Z,12.48
2023-04-16T10:28:27.279Z,12.71
2023-04-16T10:33:35.248Z,12.82
2023-04-16T10:38:45.174Z,12.74
2023-04-16T10:43:52.719Z,12.87
2023-04-16T10:48:57.138Z,12.99
2023-04-16T10:54:12.782Z,13.01
2023-04-16T10:59:20.061Z,13.03
2023-04-16T11:04:25.833Z,12.92
2023-04-16T11:09:51.445Z,12.92
2023-04-16T11:15:06.463Z,12.71
2023-04-16T11:20:20.943Z,12.66
2023-04-16T11:25:31.867Z,13.30
2023-04-16T11:30:39.231Z,13.26
2023-04-16T11:35:43.481Z,13.36
2023-04-16T11:40:47.921Z,13.04
2023-04-16T11:46:10.306Z,13.33
2023-04-16T11:51:19.860Z,13.66
2023-04-16T11:56:34.242Z,13.68
2023-04-16T12:01:38.076Z,13.82
2023-04-16T12:06:41.009Z,13.39
2023-04-16T12:11:43.897Z,13.31
2023-04-16T12:16:46.555Z,13.06
2023-04-16T12:21:52.067Z,13.01
2023-04-16T12:27:03.414Z,13.03
2023-04-16T12:32:20.899Z,12.80
2023-04-16T12:37:23.526Z,12.73
2023-04-16T12:42:26.309Z,12.78
2023-04-16T12:47:28.885Z,13.03
2023-04-16T12:52:32.024Z,13.88
2023-04-16T12:57:34.730Z,14.16
2023-04-16T13:02:37.732Z,14.43
2023-04-16T13:07:40.514Z,15.12
2023-04-16T13:12:43.093Z,14.98
2023-04-16T13:17:46.330Z,15.42
2023-04-16T13:22:49.134Z,15.73
2023-04-16T13:27:51.844Z,15.44
2023-04-16T13:32:54.472Z,15.55
2023-04-16T13:37:57.184Z,15.43
2023-04-16T13:43:00.123Z,15.41
2023-04-16T13:48:03.460Z,15.63
2023-04-16T13:53:06.591Z,15.72
2023-04-16T13:58:09.776Z,15.94
2023-04-16T14:03:12.513Z,15.79
2023-04-16T14:08:16.648Z,15.80
2023-04-16T14:13:19.305Z,14.79
2023-04-16T14:18:22.049Z,15.15
2023-04-16T14:23:24.807Z,15.53
2023-04-16T14:28:27.416Z,15.78
2023-04-16T14:33:30.298Z,15.54
2023-04-16T14:38:33.292Z,15.07
2023-04-16T14:43:36.550Z,15.52
2023-04-16T14:48:40.176Z,15.51
2023-04-16T14:53:42.986Z,15.53
2023-04-16T14:58:45.772Z,15.23
2023-04-16T15:03:48.659Z,15.09
2023-04-16T15:08:51.339Z,15.40
2023-04-16T15:13:54.204Z,15.52
2023-04-16T15:18:56.817Z,15.55
2023-04-16T15:23:59.894Z,15.35
2023-04-16T15:29:02.916Z,15.49
2023-04-16T15:34:05.668Z,15.45
2023-04-16T15:39:08.872Z,15.16
2023-04-16T15:44:11.655Z,15.33
2023-04-16T15:49:14.238Z,15.43
2023-04-16T15:54:18.524Z,15.51
2023-04-16T15:59:21.254Z,15.31
2023-04-16T16:04:26.551Z,15.33
2023-04-16T16:09:29.507Z,15.33
2023-04-16T16:14:33.279Z,15.38
2023-04-16T16:19:35.831Z,15.15
2023-04-16T16:24:38.888Z,15.23
2023-04-16T16:29:41.669Z,15.14
2023-04-16T16:34:44.340Z,14.92
2023-04-16T16:39:47.089Z,14.85
2023-04-16T16:44:49.767Z,15.00
2023-04-16T16:49:54.869Z,15.05
2023-04-16T16:54:58.153Z,15.06
2023-04-16T17:00:01.402Z,15.01
2023-04-16T17:05:05.058Z,14.88
2023-04-16T17:10:08.262Z,14.63
2023-04-16T17:15:11.613Z,14.71
2023-04-16T17:20:14.483Z,14.83
2023-04-16T17:25:17.267Z,14.86
2023-04-16T17:30:20.009Z,15.03
2023-04-16T17:35:22.976Z,15.13
2023-04-16T17:40:25.769Z,15.01
2023-04-16T17:45:28.516Z,14.15
2023-04-16T17:50:31.833Z,13.41
2023-04-16T17:55:34.654Z,12.98
2023-04-16T18:00:37.449Z,13.03
2023-04-16T18:05:41.037Z,12.94
2023-04-16T18:10:43.589Z,12.80
2023-04-16T18:15:46.462Z,12.81
2023-04-16T18:20:49.229Z,12.54
2023-04-16T18:25:52.214Z,12.53
2023-04-16T18:30:58.707Z,12.49
2023-04-16T18:36:02.701Z,12.64
2023-04-16T18:41:05.438Z,12.59
2023-04-16T18:46:08.051Z,12.45
2023-04-16T18:51:11.899Z,12.15
2023-04-16T18:56:15.211Z,12.20
2023-04-16T19:01:18.071Z,11.89
2023-04-16T19:06:20.829Z,12.29
2023-04-16T19:11:23.626Z,12.25
2023-04-16T19:16:26.522Z,12.06
2023-04-16T19:21:29.516Z,12.27
2023-04-16T19:26:32.598Z,12.33
2023-04-16T19:31:35.262Z,12.30
2023-04-16T19:36:38.296Z,12.17
2023-04-16T19:41:41.003Z,12.45
2023-04-16T19:46:43.695Z,12.27
2023-04-16T19:51:46.586Z,12.29
2023-04-16T19:56:53.383Z,12.31
2023-04-16T20:01:56.060Z,12.17
2023-04-16T20:06:58.964Z,12.07
2023-04-16T20:12:02.521Z,12.16
2023-04-16T20:17:10.213Z,12.35
2023-04-16T20:22:13.479Z,12.05
2023-04-16T20:27:17.084Z,11.78
2023-04-16T20:32:19.766Z,12.00
2023-04-16T20:37:22.741Z,11.88
2023-04-16T20:42:26.540Z,11.97
2023-04-16T20:47:29.256Z,11.83
2023-04-16T20:52:32.854Z,11.96
2023-04-16T20:57:35.518Z,11.91
2023-04-16T21:02:38.549Z,11.97
2023-04-16T21:07:41.998Z,12.12
2023-04-16T21:12:44.786Z,11.86
2023-04-16T21:17:47.416Z,11.90
2023-04-16T21:22:51.399Z,11.88
2023-04-16T21:27:54.080Z,11.93
2023-04-16T21:32:56.782Z,12.03
2023-04-16T21:37:59.512Z,12.00
2023-04-16T21:43:02.488Z,12.03
2023-04-16T21:48:05.381Z,12.20
2023-04-16T21:53:08.075Z,12.17
2023-04-16T21:58:10.934Z,12.12
2023-04-16T22:03:13.868Z,12.19
2023-04-16T22:08:24.448Z,12.24
2023-04-16T22:13:34.118Z,12.07
2023-04-16T22:18:37.621Z,12.45
2023-04-16T22:23:40.223Z,12.68
2023-04-16T22:28:42.795Z,12.55
2023-04-16T22:33:45.581Z,12.40
2023-04-16T22:38:48.467Z,12.36
2023-04-16T22:43:52.487Z,12.34
2023-04-16T22:48:55.317Z,12.44
2023-04-16T22:53:58.056Z,12.23
2023-04-16T22:59:00.865Z,11.96
2023-04-16T23:04:03.871Z,11.84
2023-04-16T23:09:06.733Z,11.87
2023-04-16T23:14:09.904Z,11.85
2023-04-16T23:19:15.099Z,11.67
2023-04-16T23:24:17.669Z,11.75
2023-04-16T23:29:21.040Z,11.77
2023-04-16T23:34:23.661Z,11.66
2023-04-16T23:39:26.346Z,11.62
2023-04-16T23:44:29.225Z,11.63
2023-04-16T23:49:32.109Z,11.70
2023-04-16T23:54:34.870Z,11.43
2023-04-16T23:59:37.382Z,11.54
